sensor_id;sensor_type;location;lat;lon;timestamp;temperature;humidity
51557;DHT22;38766;53.194;5.532;2022-12-11T00:00:48;1.50;99.90
51557;DHT22;38766;53.194;5.532;2022-12-11T00:03:15;1.50;99.90
51557;DHT22;38766;53.194;5.532;2022-12-11T00:05:42;1.50;99.90
51557;DHT22;38766;53.194;5.532;2022-12-11T00:08:09;1.60;99.90
51557;DHT22;38766;53.194;5.532;2022-12-11T00:10:35;1.60;99.90
51557;DHT22;38766;53.194;5.532;2022-12-11T00:13:01;1.70;99.90
51557;DHT22;38766;53.194;5.532;2022-12-11T00:15:27;1.70;99.90
51557;DHT22;38766;53.194;5.532;2022-12-11T00:17:53;1.70;99.90
51557;DHT22;38766;53.194;5.532;2022-12-11T00:20:18;1.70;99.90
51557;DHT22;38766;53.194;5.532;2022-12-11T00:22:44;1.80;99.90
51557;DHT22;38766;53.194;5.532;2022-12-11T00:25:10;1.80;99.90
51557;DHT22;38766;53.194;5.532;2022-12-11T00:27:35;1.90;99.90
51557;DHT22;38766;53.194;5.532;2022-12-11T00:30:01;1.90;99.90
51557;DHT22;38766;53.194;5.532;2022-12-11T00:32:27;1.90;99.90
51557;DHT22;38766;53.194;5.532;2022-12-11T00:34:53;2.00;99.90
51557;DHT22;38766;53.194;5.532;2022-12-11T00:37:18;2.00;99.90
51557;DHT22;38766;53.194;5.532;2022-12-11T00:39:44;2.00;99.90
51557;DHT22;38766;53.194;5.532;2022-12-11T00:42:10;2.00;99.90
51557;DHT22;38766;53.194;5.532;2022-12-11T00:44:35;2.00;99.90
51557;DHT22;38766;53.194;5.532;2022-12-11T00:47:02;2.00;99.90
51557;DHT22;38766;53.194;5.532;2022-12-11T00:49:27;2.10;99.90
51557;DHT22;38766;53.194;5.532;2022-12-11T00:51:53;2.10;99.90
51557;DHT22;38766;53.194;5.532;2022-12-11T00:54:19;2.10;99.90
51557;DHT22;38766;53.194;5.532;2022-12-11T00:56:44;2.10;99.90
51557;DHT22;38766;53.194;5.532;2022-12-11T00:59:10;2.10;99.90
51557;DHT22;38766;53.194;5.532;2022-12-11T01:01:36;2.10;99.90
51557;DHT22;38766;53.194;5.532;2022-12-11T01:04:01;2.10;99.90
51557;DHT22;38766;53.194;5.532;2022-12-11T01:06:27;2.10;99.90
51557;DHT22;38766;53.194;5.532;2022-12-11T01:08:54;2.20;99.90
51557;DHT22;38766;53.194;5.532;2022-12-11T01:11:40;2.20;99.90
51557;DHT22;38766;53.194;5.532;2022-12-11T01:14:07;2.20;99.90
51557;DHT22;38766;53.194;5.532;2022-12-11T01:16:33;2.20;99.90
51557;DHT22;38766;53.194;5.532;2022-12-11T01:18:59;2.20;99.90
51557;DHT22;38766;53.194;5.532;2022-12-11T01:21:25;2.20;99.90
51557;DHT22;38766;53.194;5.532;2022-12-11T01:23:50;2.30;99.90
51557;DHT22;38766;53.194;5.532;2022-12-11T01:26:16;2.20;99.90
51557;DHT22;38766;53.194;5.532;2022-12-11T01:28:42;2.30;99.90
51557;DHT22;38766;53.194;5.532;2022-12-11T01:31:09;2.30;99.90
51557;DHT22;38766;53.194;5.532;2022-12-11T01:33:36;2.30;99.90
51557;DHT22;38766;53.194;5.532;2022-12-11T01:36:08;2.30;99.90
51557;DHT22;38766;53.194;5.532;2022-12-11T01:38:34;2.30;99.90
51557;DHT22;38766;53.194;5.532;2022-12-11T01:40:59;2.30;99.90
51557;DHT22;38766;53.194;5.532;2022-12-11T01:43:25;2.30;99.90
51557;DHT22;38766;53.194;5.532;2022-12-11T01:45:50;2.30;99.90
51557;DHT22;38766;53.194;5.532;2022-12-11T01:48:28;2.30;99.90
51557;DHT22;38766;53.194;5.532;2022-12-11T01:51:00;2.30;99.90
51557;DHT22;38766;53.194;5.532;2022-12-11T01:53:33;2.30;99.90
51557;DHT22;38766;53.194;5.532;2022-12-11T01:56:00;2.30;99.90
51557;DHT22;38766;53.194;5.532;2022-12-11T01:58:31;2.30;99.90
51557;DHT22;38766;53.194;5.532;2022-12-11T02:00:59;2.30;99.90
51557;DHT22;38766;53.194;5.532;2022-12-11T02:03:25;2.30;99.90
51557;DHT22;38766;53.194;5.532;2022-12-11T02:05:51;2.40;99.90
51557;DHT22;38766;53.194;5.532;2022-12-11T02:08:17;2.30;99.90
51557;DHT22;38766;53.194;5.532;2022-12-11T02:13:33;2.30;99.90
51557;DHT22;38766;53.194;5.532;2022-12-11T02:16:18;2.20;99.90
51557;DHT22;38766;53.194;5.532;2022-12-11T02:18:57;2.30;99.90
51557;DHT22;38766;53.194;5.532;2022-12-11T02:21:24;2.30;99.90
51557;DHT22;38766;53.194;5.532;2022-12-11T02:23:59;2.30;99.90
51557;DHT22;38766;53.194;5.532;2022-12-11T02:26:59;2.30;99.90
51557;DHT22;38766;53.194;5.532;2022-12-11T02:29:37;2.30;99.90
51557;DHT22;38766;53.194;5.532;2022-12-11T02:32:15;2.30;99.90
51557;DHT22;38766;53.194;5.532;2022-12-11T02:34:58;2.30;99.90
51557;DHT22;38766;53.194;5.532;2022-12-11T02:37:26;2.30;99.90
51557;DHT22;38766;53.194;5.532;2022-12-11T02:39:54;2.30;99.90
51557;DHT22;38766;53.194;5.532;2022-12-11T02:42:22;2.30;99.90
51557;DHT22;38766;53.194;5.532;2022-12-11T02:44:49;2.30;99.90
51557;DHT22;38766;53.194;5.532;2022-12-11T02:47:16;2.30;99.90
51557;DHT22;38766;53.194;5.532;2022-12-11T02:49:47;2.30;99.90
51557;DHT22;38766;53.194;5.532;2022-12-11T02:52:16;2.30;99.90
51557;DHT22;38766;53.194;5.532;2022-12-11T02:54:43;2.30;99.90
51557;DHT22;38766;53.194;5.532;2022-12-11T02:57:21;2.30;99.90
51557;DHT22;38766;53.194;5.532;2022-12-11T02:59:48;2.40;99.90
51557;DHT22;38766;53.194;5.532;2022-12-11T03:02:14;2.30;99.90
51557;DHT22;38766;53.194;5.532;2022-12-11T03:04:42;2.40;99.90
51557;DHT22;38766;53.194;5.532;2022-12-11T03:07:15;2.40;99.90
51557;DHT22;38766;53.194;5.532;2022-12-11T03:09:44;2.40;99.90
51557;DHT22;38766;53.194;5.532;2022-12-11T03:12:14;2.40;99.90
51557;DHT22;38766;53.194;5.532;2022-12-11T03:14:41;2.40;99.90
51557;DHT22;38766;53.194;5.532;2022-12-11T03:17:29;2.40;99.90
51557;DHT22;38766;53.194;5.532;2022-12-11T03:23:02;2.40;99.90
51557;DHT22;38766;53.194;5.532;2022-12-11T03:25:39;2.40;99.90
51557;DHT22;38766;53.194;5.532;2022-12-11T03:31:04;2.50;99.90
51557;DHT22;38766;53.194;5.532;2022-12-11T03:33:36;2.50;99.90
51557;DHT22;38766;53.194;5.532;2022-12-11T03:36:06;2.50;99.90
51557;DHT22;38766;53.194;5.532;2022-12-11T03:38:59;2.40;99.90
51557;DHT22;38766;53.194;5.532;2022-12-11T03:41:26;2.50;99.90
51557;DHT22;38766;53.194;5.532;2022-12-11T03:43:56;2.60;99.90
51557;DHT22;38766;53.194;5.532;2022-12-11T03:46:30;2.50;99.90
51557;DHT22;38766;53.194;5.532;2022-12-11T03:49:00;2.50;99.90
51557;DHT22;38766;53.194;5.532;2022-12-11T03:51:29;2.50;99.90
51557;DHT22;38766;53.194;5.532;2022-12-11T03:53:56;2.50;99.90
51557;DHT22;38766;53.194;5.532;2022-12-11T03:56:23;2.50;99.90
51557;DHT22;38766;53.194;5.532;2022-12-11T03:58:49;2.60;99.90
51557;DHT22;38766;53.194;5.532;2022-12-11T04:01:15;2.60;99.90
51557;DHT22;38766;53.194;5.532;2022-12-11T04:03:41;2.60;99.90
51557;DHT22;38766;53.194;5.532;2022-12-11T04:06:06;2.60;99.90
51557;DHT22;38766;53.194;5.532;2022-12-11T04:08:33;2.60;99.90
51557;DHT22;38766;53.194;5.532;2022-12-11T04:10:59;2.60;99.90
51557;DHT22;38766;53.194;5.532;2022-12-11T04:13:45;2.60;99.90
51557;DHT22;38766;53.194;5.532;2022-12-11T04:16:31;2.60;99.90
51557;DHT22;38766;53.194;5.532;2022-12-11T04:18:56;2.60;99.90
51557;DHT22;38766;53.194;5.532;2022-12-11T04:21:40;2.60;99.90
51557;DHT22;38766;53.194;5.532;2022-12-11T04:24:25;2.60;99.90
51557;DHT22;38766;53.194;5.532;2022-12-11T04:26:50;2.60;99.90
51557;DHT22;38766;53.194;5.532;2022-12-11T04:29:16;2.60;99.90
51557;DHT22;38766;53.194;5.532;2022-12-11T04:31:42;2.60;99.90
51557;DHT22;38766;53.194;5.532;2022-12-11T04:34:07;2.60;99.90
51557;DHT22;38766;53.194;5.532;2022-12-11T04:36:33;2.60;99.90
51557;DHT22;38766;53.194;5.532;2022-12-11T04:38:59;2.60;99.90
51557;DHT22;38766;53.194;5.532;2022-12-11T04:41:24;2.60;99.90
51557;DHT22;38766;53.194;5.532;2022-12-11T04:43:50;2.60;99.90
51557;DHT22;38766;53.194;5.532;2022-12-11T04:46:19;2.60;99.90
51557;DHT22;38766;53.194;5.532;2022-12-11T04:48:45;2.60;99.90
51557;DHT22;38766;53.194;5.532;2022-12-11T04:51:12;2.60;99.90
51557;DHT22;38766;53.194;5.532;2022-12-11T04:53:38;2.60;99.90
51557;DHT22;38766;53.194;5.532;2022-12-11T04:56:09;2.60;99.90
51557;DHT22;38766;53.194;5.532;2022-12-11T04:58:35;2.60;99.90
51557;DHT22;38766;53.194;5.532;2022-12-11T05:01:09;2.50;99.90
51557;DHT22;38766;53.194;5.532;2022-12-11T05:03:35;2.60;99.90
51557;DHT22;38766;53.194;5.532;2022-12-11T05:06:01;2.50;99.90
51557;DHT22;38766;53.194;5.532;2022-12-11T05:08:27;2.60;99.90
51557;DHT22;38766;53.194;5.532;2022-12-11T05:10:57;2.60;99.90
51557;DHT22;38766;53.194;5.532;2022-12-11T05:13:23;2.60;99.90
51557;DHT22;38766;53.194;5.532;2022-12-11T05:15:49;2.60;99.90
51557;DHT22;38766;53.194;5.532;2022-12-11T05:18:15;2.60;99.90
51557;DHT22;38766;53.194;5.532;2022-12-11T05:20:41;2.70;99.90
51557;DHT22;38766;53.194;5.532;2022-12-11T05:23:06;2.70;99.90
51557;DHT22;38766;53.194;5.532;2022-12-11T05:25:32;2.70;99.90
51557;DHT22;38766;53.194;5.532;2022-12-11T05:27:58;2.70;99.90
51557;DHT22;38766;53.194;5.532;2022-12-11T05:30:23;2.70;99.90
51557;DHT22;38766;53.194;5.532;2022-12-11T05:32:49;2.70;99.90
51557;DHT22;38766;53.194;5.532;2022-12-11T05:35:15;2.70;99.90
51557;DHT22;38766;53.194;5.532;2022-12-11T05:37:40;2.70;99.90
51557;DHT22;38766;53.194;5.532;2022-12-11T05:40:06;2.60;99.90
51557;DHT22;38766;53.194;5.532;2022-12-11T05:42:33;2.60;99.90
51557;DHT22;38766;53.194;5.532;2022-12-11T05:44:59;2.60;99.90
51557;DHT22;38766;53.194;5.532;2022-12-11T05:47:24;2.60;99.90
51557;DHT22;38766;53.194;5.532;2022-12-11T05:49:50;2.60;99.90
51557;DHT22;38766;53.194;5.532;2022-12-11T05:52:16;2.60;99.90
51557;DHT22;38766;53.194;5.532;2022-12-11T05:54:42;2.50;99.90
51557;DHT22;38766;53.194;5.532;2022-12-11T05:57:07;2.50;99.90
51557;DHT22;38766;53.194;5.532;2022-12-11T05:59:33;2.50;99.90
51557;DHT22;38766;53.194;5.532;2022-12-11T06:01:58;2.50;99.90
51557;DHT22;38766;53.194;5.532;2022-12-11T06:04:24;2.50;99.90
51557;DHT22;38766;53.194;5.532;2022-12-11T06:06:53;2.50;99.90
51557;DHT22;38766;53.194;5.532;2022-12-11T06:09:19;2.50;99.90
51557;DHT22;38766;53.194;5.532;2022-12-11T06:11:44;2.50;99.90
51557;DHT22;38766;53.194;5.532;2022-12-11T06:14:10;2.50;99.90
51557;DHT22;38766;53.194;5.532;2022-12-11T06:16:36;2.50;99.90
51557;DHT22;38766;53.194;5.532;2022-12-11T06:19:02;2.50;99.90
51557;DHT22;38766;53.194;5.532;2022-12-11T06:21:30;2.50;99.90
51557;DHT22;38766;53.194;5.532;2022-12-11T06:23:58;2.50;99.90
51557;DHT22;38766;53.194;5.532;2022-12-11T06:26:25;2.50;99.90
51557;DHT22;38766;53.194;5.532;2022-12-11T06:28:51;2.50;99.90
51557;DHT22;38766;53.194;5.532;2022-12-11T06:31:17;2.50;99.90
51557;DHT22;38766;53.194;5.532;2022-12-11T06:33:43;2.60;99.90
51557;DHT22;38766;53.194;5.532;2022-12-11T06:36:15;2.60;99.90
51557;DHT22;38766;53.194;5.532;2022-12-11T06:38:41;2.60;99.90
51557;DHT22;38766;53.194;5.532;2022-12-11T06:41:07;2.60;99.90
51557;DHT22;38766;53.194;5.532;2022-12-11T06:43:35;2.50;99.90
51557;DHT22;38766;53.194;5.532;2022-12-11T06:46:10;2.50;99.90
51557;DHT22;38766;53.194;5.532;2022-12-11T06:48:36;2.60;99.90
51557;DHT22;38766;53.194;5.532;2022-12-11T06:51:10;2.60;99.90
51557;DHT22;38766;53.194;5.532;2022-12-11T06:53:37;2.60;99.90
51557;DHT22;38766;53.194;5.532;2022-12-11T06:56:13;2.60;99.90
51557;DHT22;38766;53.194;5.532;2022-12-11T06:58:41;2.60;99.90
51557;DHT22;38766;53.194;5.532;2022-12-11T07:01:15;2.60;99.90
51557;DHT22;38766;53.194;5.532;2022-12-11T07:03:41;2.60;99.90
51557;DHT22;38766;53.194;5.532;2022-12-11T07:06:07;2.60;99.90
51557;DHT22;38766;53.194;5.532;2022-12-11T07:08:33;2.70;99.90
51557;DHT22;38766;53.194;5.532;2022-12-11T07:11:07;2.70;99.90
51557;DHT22;38766;53.194;5.532;2022-12-11T07:13:34;2.60;99.90
51557;DHT22;38766;53.194;5.532;2022-12-11T07:16:00;2.70;99.90
51557;DHT22;38766;53.194;5.532;2022-12-11T07:18:26;2.70;99.90
51557;DHT22;38766;53.194;5.532;2022-12-11T07:20:52;2.60;99.90
51557;DHT22;38766;53.194;5.532;2022-12-11T07:23:18;2.60;99.90
51557;DHT22;38766;53.194;5.532;2022-12-11T07:25:44;2.60;99.90
51557;DHT22;38766;53.194;5.532;2022-12-11T07:28:09;2.60;99.90
51557;DHT22;38766;53.194;5.532;2022-12-11T07:30:37;2.60;99.90
51557;DHT22;38766;53.194;5.532;2022-12-11T07:33:03;2.60;99.90
51557;DHT22;38766;53.194;5.532;2022-12-11T07:35:28;2.50;99.90
51557;DHT22;38766;53.194;5.532;2022-12-11T07:37:55;2.50;99.90
51557;DHT22;38766;53.194;5.532;2022-12-11T07:40:22;2.50;99.90
51557;DHT22;38766;53.194;5.532;2022-12-11T07:42:47;2.60;99.90
51557;DHT22;38766;53.194;5.532;2022-12-11T07:45:13;2.50;99.90
51557;DHT22;38766;53.194;5.532;2022-12-11T07:47:38;2.50;99.90
51557;DHT22;38766;53.194;5.532;2022-12-11T07:50:04;2.60;99.90
51557;DHT22;38766;53.194;5.532;2022-12-11T07:52:32;2.50;99.90
51557;DHT22;38766;53.194;5.532;2022-12-11T07:54:58;2.50;99.90
51557;DHT22;38766;53.194;5.532;2022-12-11T07:57:23;2.50;99.90
51557;DHT22;38766;53.194;5.532;2022-12-11T07:59:49;2.50;99.90
51557;DHT22;38766;53.194;5.532;2022-12-11T08:02:15;2.50;99.90
51557;DHT22;38766;53.194;5.532;2022-12-11T08:04:40;2.50;99.90
51557;DHT22;38766;53.194;5.532;2022-12-11T08:07:06;2.50;99.90
51557;DHT22;38766;53.194;5.532;2022-12-11T08:09:31;2.50;99.90
51557;DHT22;38766;53.194;5.532;2022-12-11T08:11:57;2.50;99.90
51557;DHT22;38766;53.194;5.532;2022-12-11T08:14:23;2.50;99.90
51557;DHT22;38766;53.194;5.532;2022-12-11T08:16:48;2.50;99.90
51557;DHT22;38766;53.194;5.532;2022-12-11T08:19:15;2.50;99.90
51557;DHT22;38766;53.194;5.532;2022-12-11T08:21:40;2.50;99.90
51557;DHT22;38766;53.194;5.532;2022-12-11T08:24:07;2.50;99.90
51557;DHT22;38766;53.194;5.532;2022-12-11T08:26:33;2.50;99.90
51557;DHT22;38766;53.194;5.532;2022-12-11T08:29:00;2.50;99.90
51557;DHT22;38766;53.194;5.532;2022-12-11T08:31:27;2.50;99.90
51557;DHT22;38766;53.194;5.532;2022-12-11T08:33:54;2.50;99.90
51557;DHT22;38766;53.194;5.532;2022-12-11T08:36:21;2.50;99.90
51557;DHT22;38766;53.194;5.532;2022-12-11T08:38:47;2.50;99.90
51557;DHT22;38766;53.194;5.532;2022-12-11T08:43:41;2.50;99.90
51557;DHT22;38766;53.194;5.532;2022-12-11T08:46:07;2.50;99.90
51557;DHT22;38766;53.194;5.532;2022-12-11T08:48:34;2.50;99.90
51557;DHT22;38766;53.194;5.532;2022-12-11T08:51:04;2.50;99.90
51557;DHT22;38766;53.194;5.532;2022-12-11T08:53:31;2.50;99.90
51557;DHT22;38766;53.194;5.532;2022-12-11T08:56:08;2.50;99.90
51557;DHT22;38766;53.194;5.532;2022-12-11T08:58:35;2.50;99.90
51557;DHT22;38766;53.194;5.532;2022-12-11T09:01:06;2.50;99.90
51557;DHT22;38766;53.194;5.532;2022-12-11T09:03:32;2.50;99.90
51557;DHT22;38766;53.194;5.532;2022-12-11T09:05:58;2.50;99.90
51557;DHT22;38766;53.194;5.532;2022-12-11T09:08:23;2.60;99.90
51557;DHT22;38766;53.194;5.532;2022-12-11T09:10:50;2.60;99.90
51557;DHT22;38766;53.194;5.532;2022-12-11T09:13:15;2.60;99.90
51557;DHT22;38766;53.194;5.532;2022-12-11T09:15:41;2.60;99.90
51557;DHT22;38766;53.194;5.532;2022-12-11T09:18:07;2.60;99.90
51557;DHT22;38766;53.194;5.532;2022-12-11T09:20:33;2.60;99.90
51557;DHT22;38766;53.194;5.532;2022-12-11T09:22:58;2.60;99.90
51557;DHT22;38766;53.194;5.532;2022-12-11T09:25:25;2.60;99.90
51557;DHT22;38766;53.194;5.532;2022-12-11T09:27:50;2.60;99.90
51557;DHT22;38766;53.194;5.532;2022-12-11T09:30:16;2.60;99.90
51557;DHT22;38766;53.194;5.532;2022-12-11T09:32:42;2.60;99.90
51557;DHT22;38766;53.194;5.532;2022-12-11T09:35:08;2.70;99.90
51557;DHT22;38766;53.194;5.532;2022-12-11T09:37:34;2.70;99.90
51557;DHT22;38766;53.194;5.532;2022-12-11T09:39:59;2.70;99.90
51557;DHT22;38766;53.194;5.532;2022-12-11T09:42:43;2.70;99.90
51557;DHT22;38766;53.194;5.532;2022-12-11T09:45:11;2.70;99.90
51557;DHT22;38766;53.194;5.532;2022-12-11T09:47:47;2.70;99.90
51557;DHT22;38766;53.194;5.532;2022-12-11T09:50:25;2.70;99.90
51557;DHT22;38766;53.194;5.532;2022-12-11T09:53:15;2.70;99.90
51557;DHT22;38766;53.194;5.532;2022-12-11T09:56:03;2.70;99.90
51557;DHT22;38766;53.194;5.532;2022-12-11T10:01:33;2.70;99.90
51557;DHT22;38766;53.194;5.532;2022-12-11T10:09:50;2.80;99.90
51557;DHT22;38766;53.194;5.532;2022-12-11T10:12:31;2.80;99.90
51557;DHT22;38766;53.194;5.532;2022-12-11T10:15:15;2.80;99.90
51557;DHT22;38766;53.194;5.532;2022-12-11T10:17:44;2.80;99.90
51557;DHT22;38766;53.194;5.532;2022-12-11T10:20:24;2.80;99.90
51557;DHT22;38766;53.194;5.532;2022-12-11T10:22:54;2.80;99.90
51557;DHT22;38766;53.194;5.532;2022-12-11T10:25:26;2.80;99.90
51557;DHT22;38766;53.194;5.532;2022-12-11T10:27:53;2.80;99.90
51557;DHT22;38766;53.194;5.532;2022-12-11T10:30:28;2.90;99.90
51557;DHT22;38766;53.194;5.532;2022-12-11T10:33:03;2.80;99.90
51557;DHT22;38766;53.194;5.532;2022-12-11T10:35:53;2.80;99.90
51557;DHT22;38766;53.194;5.532;2022-12-11T10:38:35;2.90;99.90
51557;DHT22;38766;53.194;5.532;2022-12-11T10:41:08;2.90;99.90
51557;DHT22;38766;53.194;5.532;2022-12-11T10:46:34;2.90;99.90
51557;DHT22;38766;53.194;5.532;2022-12-11T10:49:01;3.00;99.90
51557;DHT22;38766;53.194;5.532;2022-12-11T10:54:04;2.90;99.90
51557;DHT22;38766;53.194;5.532;2022-12-11T10:56:32;2.90;99.90
51557;DHT22;38766;53.194;5.532;2022-12-11T10:58:59;2.90;99.90
51557;DHT22;38766;53.194;5.532;2022-12-11T11:01:30;3.00;99.90
51557;DHT22;38766;53.194;5.532;2022-12-11T11:04:18;2.90;99.90
51557;DHT22;38766;53.194;5.532;2022-12-11T11:06:44;3.00;99.90
51557;DHT22;38766;53.194;5.532;2022-12-11T11:09:29;3.00;99.90
51557;DHT22;38766;53.194;5.532;2022-12-11T11:11:55;3.00;99.90
51557;DHT22;38766;53.194;5.532;2022-12-11T11:14:21;3.10;99.90
51557;DHT22;38766;53.194;5.532;2022-12-11T11:16:53;3.10;99.90
51557;DHT22;38766;53.194;5.532;2022-12-11T11:19:23;3.10;99.90
51557;DHT22;38766;53.194;5.532;2022-12-11T11:22:00;3.10;99.90
51557;DHT22;38766;53.194;5.532;2022-12-11T11:24:37;3.20;99.90
51557;DHT22;38766;53.194;5.532;2022-12-11T11:27:30;3.10;99.90
51557;DHT22;38766;53.194;5.532;2022-12-11T11:30:04;3.10;99.90
51557;DHT22;38766;53.194;5.532;2022-12-11T11:32:38;3.10;99.90
51557;DHT22;38766;53.194;5.532;2022-12-11T11:37:40;3.10;99.90
51557;DHT22;38766;53.194;5.532;2022-12-11T11:40:21;3.10;99.90
51557;DHT22;38766;53.194;5.532;2022-12-11T11:45:46;3.20;99.90
51557;DHT22;38766;53.194;5.532;2022-12-11T11:48:43;3.20;99.90
51557;DHT22;38766;53.194;5.532;2022-12-11T11:53:46;3.20;99.90
51557;DHT22;38766;53.194;5.532;2022-12-11T11:56:25;3.30;99.90
51557;DHT22;38766;53.194;5.532;2022-12-11T11:59:17;3.30;99.90
51557;DHT22;38766;53.194;5.532;2022-12-11T12:01:44;3.20;99.90
51557;DHT22;38766;53.194;5.532;2022-12-11T12:04:11;3.20;99.90
51557;DHT22;38766;53.194;5.532;2022-12-11T12:12:24;3.20;99.90
51557;DHT22;38766;53.194;5.532;2022-12-11T12:25:33;3.30;99.90
51557;DHT22;38766;53.194;5.532;2022-12-11T12:33:39;3.20;99.90
51557;DHT22;38766;53.194;5.532;2022-12-11T12:44:19;3.20;99.90
51557;DHT22;38766;53.194;5.532;2022-12-11T12:49:47;3.20;99.90
51557;DHT22;38766;53.194;5.532;2022-12-11T12:52:34;3.20;99.90
51557;DHT22;38766;53.194;5.532;2022-12-11T12:57:41;3.30;99.90
51557;DHT22;38766;53.194;5.532;2022-12-11T13:00:08;3.40;99.90
51557;DHT22;38766;53.194;5.532;2022-12-11T13:02:47;3.40;99.90
51557;DHT22;38766;53.194;5.532;2022-12-11T13:05:22;3.40;99.90
51557;DHT22;38766;53.194;5.532;2022-12-11T13:07:56;3.40;99.90
51557;DHT22;38766;53.194;5.532;2022-12-11T13:10:32;3.40;99.90
51557;DHT22;38766;53.194;5.532;2022-12-11T13:12:59;3.40;99.90
51557;DHT22;38766;53.194;5.532;2022-12-11T13:15:34;3.40;99.90
51557;DHT22;38766;53.194;5.532;2022-12-11T13:18:03;3.40;99.90
51557;DHT22;38766;53.194;5.532;2022-12-11T13:20:33;3.40;99.90
51557;DHT22;38766;53.194;5.532;2022-12-11T13:23:28;3.40;99.90
51557;DHT22;38766;53.194;5.532;2022-12-11T13:26:00;3.50;99.90
51557;DHT22;38766;53.194;5.532;2022-12-11T13:33:46;3.30;99.90
51557;DHT22;38766;53.194;5.532;2022-12-11T13:36:19;3.30;99.90
51557;DHT22;38766;53.194;5.532;2022-12-11T13:38:57;3.30;99.90
51557;DHT22;38766;53.194;5.532;2022-12-11T13:41:24;3.20;99.90
51557;DHT22;38766;53.194;5.532;2022-12-11T13:43:51;3.10;99.90
51557;DHT22;38766;53.194;5.532;2022-12-11T13:46:25;3.10;99.90
51557;DHT22;38766;53.194;5.532;2022-12-11T13:48:58;3.10;99.90
51557;DHT22;38766;53.194;5.532;2022-12-11T13:51:26;3.10;99.90
51557;DHT22;38766;53.194;5.532;2022-12-11T13:56:31;3.10;99.90
51557;DHT22;38766;53.194;5.532;2022-12-11T13:58:58;3.20;99.90
51557;DHT22;38766;53.194;5.532;2022-12-11T14:01:29;3.20;99.90
51557;DHT22;38766;53.194;5.532;2022-12-11T14:04:00;3.20;99.90
51557;DHT22;38766;53.194;5.532;2022-12-11T14:06:27;3.10;99.90
51557;DHT22;38766;53.194;5.532;2022-12-11T14:08:57;3.10;99.90
51557;DHT22;38766;53.194;5.532;2022-12-11T14:11:35;3.10;99.90
51557;DHT22;38766;53.194;5.532;2022-12-11T14:14:04;3.00;99.90
51557;DHT22;38766;53.194;5.532;2022-12-11T14:16:31;3.00;99.90
51557;DHT22;38766;53.194;5.532;2022-12-11T14:19:04;2.90;99.90
51557;DHT22;38766;53.194;5.532;2022-12-11T14:21:30;2.90;99.90
51557;DHT22;38766;53.194;5.532;2022-12-11T14:23:58;2.80;99.90
51557;DHT22;38766;53.194;5.532;2022-12-11T14:26:26;2.70;99.90
51557;DHT22;38766;53.194;5.532;2022-12-11T14:28:53;2.80;99.90
51557;DHT22;38766;53.194;5.532;2022-12-11T14:34:10;2.70;99.90
51557;DHT22;38766;53.194;5.532;2022-12-11T14:36:38;2.80;99.90
51557;DHT22;38766;53.194;5.532;2022-12-11T14:39:22;2.70;99.90
51557;DHT22;38766;53.194;5.532;2022-12-11T14:42:00;2.70;99.90
51557;DHT22;38766;53.194;5.532;2022-12-11T14:44:31;2.70;99.90
51557;DHT22;38766;53.194;5.532;2022-12-11T14:47:04;2.70;99.90
51557;DHT22;38766;53.194;5.532;2022-12-11T14:49:39;2.70;99.90
51557;DHT22;38766;53.194;5.532;2022-12-11T14:52:16;2.70;99.90
51557;DHT22;38766;53.194;5.532;2022-12-11T14:54:58;2.70;99.90
51557;DHT22;38766;53.194;5.532;2022-12-11T14:57:27;2.70;99.90
51557;DHT22;38766;53.194;5.532;2022-12-11T14:59:54;2.70;99.90
51557;DHT22;38766;53.194;5.532;2022-12-11T15:02:33;2.70;99.90
51557;DHT22;38766;53.194;5.532;2022-12-11T15:05:04;2.70;99.90
51557;DHT22;38766;53.194;5.532;2022-12-11T15:07:32;2.60;99.90
51557;DHT22;38766;53.194;5.532;2022-12-11T15:09:58;2.70;99.90
51557;DHT22;38766;53.194;5.532;2022-12-11T15:12:24;2.60;99.90
51557;DHT22;38766;53.194;5.532;2022-12-11T15:15:19;2.60;99.90
51557;DHT22;38766;53.194;5.532;2022-12-11T15:17:46;2.60;99.90
51557;DHT22;38766;53.194;5.532;2022-12-11T15:20:24;2.50;99.90
51557;DHT22;38766;53.194;5.532;2022-12-11T15:22:51;2.50;99.90
51557;DHT22;38766;53.194;5.532;2022-12-11T15:25:20;2.60;99.90
51557;DHT22;38766;53.194;5.532;2022-12-11T15:27:52;2.50;99.90
51557;DHT22;38766;53.194;5.532;2022-12-11T15:32:44;2.40;99.90
51557;DHT22;38766;53.194;5.532;2022-12-11T15:35:25;2.40;99.90
51557;DHT22;38766;53.194;5.532;2022-12-11T15:37:52;2.40;99.90
51557;DHT22;38766;53.194;5.532;2022-12-11T15:40:18;2.40;99.90
51557;DHT22;38766;53.194;5.532;2022-12-11T15:42:44;2.40;99.90
51557;DHT22;38766;53.194;5.532;2022-12-11T15:45:18;2.40;99.90
51557;DHT22;38766;53.194;5.532;2022-12-11T15:47:45;2.40;99.90
51557;DHT22;38766;53.194;5.532;2022-12-11T15:52:43;2.30;99.90
51557;DHT22;38766;53.194;5.532;2022-12-11T15:55:10;2.30;99.90
51557;DHT22;38766;53.194;5.532;2022-12-11T15:57:36;2.30;99.90
51557;DHT22;38766;53.194;5.532;2022-12-11T16:00:04;2.30;99.90
51557;DHT22;38766;53.194;5.532;2022-12-11T16:02:31;2.30;99.90
51557;DHT22;38766;53.194;5.532;2022-12-11T16:04:57;2.30;99.90
51557;DHT22;38766;53.194;5.532;2022-12-11T16:07:24;2.30;99.90
51557;DHT22;38766;53.194;5.532;2022-12-11T16:09:51;2.30;99.90
51557;DHT22;38766;53.194;5.532;2022-12-11T16:12:17;2.30;99.90
51557;DHT22;38766;53.194;5.532;2022-12-11T16:14:44;2.20;99.90
51557;DHT22;38766;53.194;5.532;2022-12-11T16:17:11;2.20;99.90
51557;DHT22;38766;53.194;5.532;2022-12-11T16:19:38;2.30;99.90
51557;DHT22;38766;53.194;5.532;2022-12-11T16:22:05;2.20;99.90
51557;DHT22;38766;53.194;5.532;2022-12-11T16:24:32;2.30;99.90
51557;DHT22;38766;53.194;5.532;2022-12-11T16:26:58;2.20;99.90
51557;DHT22;38766;53.194;5.532;2022-12-11T16:29:23;2.20;99.90
51557;DHT22;38766;53.194;5.532;2022-12-11T16:31:49;2.20;99.90
51557;DHT22;38766;53.194;5.532;2022-12-11T16:34:15;2.20;99.90
51557;DHT22;38766;53.194;5.532;2022-12-11T16:36:40;2.10;99.90
51557;DHT22;38766;53.194;5.532;2022-12-11T16:39:06;2.20;99.90
51557;DHT22;38766;53.194;5.532;2022-12-11T16:41:33;2.10;99.90
51557;DHT22;38766;53.194;5.532;2022-12-11T16:44:00;2.10;99.90
51557;DHT22;38766;53.194;5.532;2022-12-11T16:46:26;2.10;99.90
51557;DHT22;38766;53.194;5.532;2022-12-11T16:48:51;2.10;99.90
51557;DHT22;38766;53.194;5.532;2022-12-11T16:51:17;2.10;99.90
51557;DHT22;38766;53.194;5.532;2022-12-11T16:53:43;2.10;99.90
51557;DHT22;38766;53.194;5.532;2022-12-11T16:56:08;2.10;99.90
51557;DHT22;38766;53.194;5.532;2022-12-11T16:58:34;2.00;99.90
51557;DHT22;38766;53.194;5.532;2022-12-11T17:01:00;2.10;99.90
51557;DHT22;38766;53.194;5.532;2022-12-11T17:03:30;2.00;99.90
51557;DHT22;38766;53.194;5.532;2022-12-11T17:05:56;2.00;99.90
51557;DHT22;38766;53.194;5.532;2022-12-11T17:08:22;2.00;99.90
51557;DHT22;38766;53.194;5.532;2022-12-11T17:10:50;2.00;99.90
51557;DHT22;38766;53.194;5.532;2022-12-11T17:13:16;2.00;99.90
51557;DHT22;38766;53.194;5.532;2022-12-11T17:15:42;2.00;99.90
51557;DHT22;38766;53.194;5.532;2022-12-11T17:18:09;2.00;99.90
51557;DHT22;38766;53.194;5.532;2022-12-11T17:20:40;2.00;99.90
51557;DHT22;38766;53.194;5.532;2022-12-11T17:23:07;2.00;99.90